createdAt,value
2022-08-17T00:00:52.489Z,6.13
2022-08-17T00:02:26.901Z,6.03
2022-08-17T00:03:58.928Z,5.84
2022-08-17T00:05:30.820Z,6.26
2022-08-17T00:07:04.049Z,6.01
2022-08-17T00:08:42.233Z,5.81
2022-08-17T00:10:14.604Z,6.28
2022-08-17T00:12:41.309Z,6.21
2022-08-17T00:14:21.223Z,6.53
2022-08-17T00:15:53.034Z,6.66
2022-08-17T00:17:24.812Z,6.48
2022-08-17T00:19:07.363Z,6.52
2022-08-17T00:20:40.447Z,6.72
2022-08-17T00:22:31.501Z,6.59
2022-08-17T00:24:12.058Z,6.48
2022-08-17T00:25:43.958Z,6.66
2022-08-17T00:27:15.913Z,6.24
2022-08-17T00:28:47.792Z,6.22
2022-08-17T00:30:19.432Z,6.63
2022-08-17T00:31:51.149Z,6.82
2022-08-17T00:33:23.675Z,6.51
2022-08-17T00:35:00.588Z,6.32
2022-08-17T00:36:32.468Z,6.29
2022-08-17T00:38:04.436Z,6.04
2022-08-17T00:39:38.134Z,6.08
2022-08-17T00:41:09.907Z,5.73
2022-08-17T00:42:41.529Z,6.11
2022-08-17T00:44:13.459Z,6.01
2022-08-17T00:45:45.359Z,6.05
2022-08-17T00:47:21.961Z,6.15
2022-08-17T00:48:53.961Z,5.97
2022-08-17T00:50:25.694Z,6.02
2022-08-17T00:51:57.341Z,6.01
2022-08-17T00:53:29.078Z,5.91
2022-08-17T00:55:00.779Z,6.17
2022-08-17T00:56:32.324Z,5.87
2022-08-17T00:58:09.330Z,6.20
2022-08-17T00:59:41.219Z,6.66
2022-08-17T01:01:21.738Z,5.96
2022-08-17T01:02:53.897Z,5.61
2022-08-17T01:04:25.716Z,5.92
2022-08-17T01:05:57.481Z,6.42
2022-08-17T01:07:29.434Z,6.23
2022-08-17T01:09:01.417Z,5.86
2022-08-17T01:10:57.393Z,6.18
2022-08-17T01:12:32.572Z,6.09
2022-08-17T01:14:10.025Z,5.64
2022-08-17T01:15:41.788Z,5.80
2022-08-17T01:17:17.908Z,5.75
2022-08-17T01:18:49.590Z,5.95
2022-08-17T01:20:22.036Z,6.06
2022-08-17T01:21:54.033Z,5.86
2022-08-17T01:23:25.740Z,6.04
2022-08-17T01:25:02.498Z,5.84
2022-08-17T01:26:39.238Z,5.71
2022-08-17T01:28:10.988Z,6.05
2022-08-17T01:30:05.384Z,5.90
2022-08-17T01:32:29.617Z,6.27
2022-08-17T01:34:06.669Z,6.13
2022-08-17T01:35:38.886Z,6.17
2022-08-17T01:37:10.723Z,6.21
2022-08-17T01:38:42.711Z,6.25
2022-08-17T01:40:14.892Z,6.25
2022-08-17T01:41:46.673Z,6.41
2022-08-17T01:43:18.390Z,6.17
2022-08-17T01:44:50.212Z,6.22
2022-08-17T01:46:26.987Z,6.30
2022-08-17T01:47:58.664Z,6.30
2022-08-17T01:49:30.264Z,6.24
2022-08-17T01:51:01.823Z,6.08
2022-08-17T01:52:33.880Z,6.45
2022-08-17T01:54:05.546Z,6.50
2022-08-17T01:55:37.315Z,6.00
2022-08-17T01:57:09.112Z,5.92
2022-08-17T01:58:40.892Z,6.47
2022-08-17T02:00:12.946Z,6.06
2022-08-17T02:01:45.016Z,6.08
2022-08-17T02:03:16.486Z,5.70
2022-08-17T02:04:48.640Z,5.94
2022-08-17T02:06:27.166Z,6.12
2022-08-17T02:08:00.817Z,6.06
2022-08-17T02:09:32.590Z,5.80
2022-08-17T02:11:04.885Z,6.15
2022-08-17T02:12:43.260Z,5.62
2022-08-17T02:14:15.252Z,6.04
2022-08-17T02:15:47.141Z,5.46
2022-08-17T02:17:18.833Z,5.83
2022-08-17T02:18:50.606Z,5.89
2022-08-17T02:20:36.432Z,6.04
2022-08-17T02:22:14.518Z,5.83
2022-08-17T02:23:46.297Z,5.78
2022-08-17T02:25:18.191Z,6.07
2022-08-17T02:26:50.123Z,5.90
2022-08-17T02:28:21.762Z,5.70
2022-08-17T02:29:53.523Z,5.63
2022-08-17T02:31:25.186Z,5.92
2022-08-17T02:32:57.209Z,5.95
2022-08-17T02:34:29.232Z,6.01
2022-08-17T02:36:00.909Z,5.97
2022-08-17T02:37:32.696Z,5.71
2022-08-17T02:39:04.311Z,5.87
2022-08-17T02:40:36.742Z,5.97
2022-08-17T02:42:09.535Z,6.19
2022-08-17T02:43:41.442Z,6.00
2022-08-17T02:45:13.304Z,5.99
2022-08-17T02:46:44.907Z,5.80
2022-08-17T02:48:16.722Z,5.99
2022-08-17T02:50:03.669Z,5.85
2022-08-17T02:51:35.611Z,5.62
2022-08-17T02:53:07.607Z,5.81
2022-08-17T02:54:42.258Z,5.69
2022-08-17T02:56:14.538Z,5.39
2022-08-17T02:57:46.609Z,5.29
2022-08-17T02:59:18.402Z,5.45
2022-08-17T03:00:50.523Z,5.59
2022-08-17T03:02:22.503Z,5.64
2022-08-17T03:03:54.407Z,5.54
2022-08-17T03:05:25.988Z,5.60
2022-08-17T03:06:57.894Z,5.31
2022-08-17T03:08:29.689Z,4.94
2022-08-17T03:10:01.555Z,5.22
2022-08-17T03:11:33.732Z,5.16
2022-08-17T03:13:05.515Z,4.96
2022-08-17T03:14:41.266Z,5.35
2022-08-17T03:16:13.512Z,5.11
2022-08-17T03:17:45.660Z,5.04
2022-08-17T03:19:22.563Z,5.05
2022-08-17T03:20:54.513Z,5.02
2022-08-17T03:22:36.165Z,5.36
2022-08-17T03:24:10.435Z,4.82
2022-08-17T03:25:44.047Z,4.76
2022-08-17T03:27:15.777Z,4.71
2022-08-17T03:28:47.825Z,4.50
2022-08-17T03:30:19.508Z,4.74
2022-08-17T03:31:53.021Z,4.54
2022-08-17T03:33:24.622Z,4.51
2022-08-17T03:34:56.176Z,4.20
2022-08-17T03:36:28.363Z,4.48
2022-08-17T03:38:01.213Z,4.46
2022-08-17T03:39:33.071Z,4.54
2022-08-17T03:41:04.924Z,4.58
2022-08-17T03:42:36.543Z,4.29
2022-08-17T03:44:13.997Z,4.10
2022-08-17T03:45:45.713Z,4.28
2022-08-17T03:47:17.674Z,4.78
2022-08-17T03:48:49.487Z,4.35
2022-08-17T03:50:21.294Z,4.42
2022-08-17T03:51:53.094Z,4.27
2022-08-17T03:53:24.562Z,4.32
2022-08-17T03:54:56.610Z,4.54
2022-08-17T03:56:28.453Z,4.68
2022-08-17T03:58:00.268Z,4.56
2022-08-17T03:59:32.159Z,4.60
2022-08-17T04:01:04.039Z,4.32
2022-08-17T04:02:36.368Z,4.30
2022-08-17T04:04:09.456Z,4.27
2022-08-17T04:05:41.129Z,4.35
2022-08-17T04:07:13.125Z,4.36
2022-08-17T04:08:45.331Z,4.57
2022-08-17T04:10:17.185Z,4.26
2022-08-17T04:11:49.050Z,4.40
2022-08-17T04:13:24.894Z,4.15
2022-08-17T04:14:57.724Z,4.24
2022-08-17T04:16:29.695Z,4.45
2022-08-17T04:18:01.441Z,4.25
2022-08-17T04:19:38.617Z,4.32
2022-08-17T04:21:10.301Z,4.24
2022-08-17T04:22:42.306Z,4.36
2022-08-17T04:24:14.007Z,4.16
2022-08-17T04:26:00.028Z,4.33
2022-08-17T04:27:31.814Z,4.56
2022-08-17T04:29:03.431Z,4.35
2022-08-17T04:30:35.155Z,4.41
2022-08-17T04:32:07.020Z,4.35
2022-08-17T04:33:38.760Z,4.34
2022-08-17T04:35:11.072Z,4.48
2022-08-17T04:36:50.334Z,4.53
2022-08-17T04:38:22.282Z,4.35
2022-08-17T04:39:54.031Z,4.20
2022-08-17T04:41:25.872Z,4.21
2022-08-17T04:43:00.004Z,4.40
2022-08-17T04:44:38.203Z,4.53
2022-08-17T04:46:09.840Z,3.99
2022-08-17T04:47:41.772Z,4.41
2022-08-17T04:49:13.701Z,4.59
2022-08-17T04:50:45.510Z,4.49
2022-08-17T04:52:29.853Z,4.31
2022-08-17T04:54:15.578Z,4.39
2022-08-17T04:55:47.773Z,4.31
2022-08-17T04:57:19.562Z,4.45
2022-08-17T04:58:51.490Z,4.26
2022-08-17T05:00:22.972Z,4.85
2022-08-17T05:01:54.675Z,4.60
2022-08-17T05:03:26.298Z,4.56
2022-08-17T05:04:58.286Z,4.35
2022-08-17T05:06:30.270Z,4.42
2022-08-17T05:08:02.227Z,4.28
2022-08-17T05:09:34.122Z,4.58
2022-08-17T05:11:07.121Z,4.22
2022-08-17T05:12:38.991Z,4.61
2022-08-17T05:14:10.866Z,3.93
2022-08-17T05:15:44.885Z,4.16
2022-08-17T05:17:17.214Z,4.32
2022-08-17T05:18:49.506Z,4.50
2022-08-17T05:20:21.304Z,4.16
2022-08-17T05:21:52.833Z,4.33
2022-08-17T05:23:24.887Z,4.38
2022-08-17T05:24:56.739Z,4.07
2022-08-17T05:26:29.657Z,4.37
2022-08-17T05:28:02.258Z,4.18
2022-08-17T05:29:35.166Z,4.24
2022-08-17T05:31:12.877Z,4.07
2022-08-17T05:32:44.797Z,4.17
2022-08-17T05:34:16.636Z,3.89
2022-08-17T05:35:48.407Z,3.74
2022-08-17T05:37:20.343Z,3.80
2022-08-17T05:38:52.161Z,3.86
2022-08-17T05:40:23.872Z,4.05
2022-08-17T05:42:05.583Z,3.93
2022-08-17T05:43:37.547Z,4.39
2022-08-17T05:45:09.489Z,3.96
2022-08-17T05:46:41.256Z,3.98
2022-08-17T05:48:12.895Z,4.17
2022-08-17T05:49:49.939Z,4.21
2022-08-17T05:51:21.925Z,4.01
2022-08-17T05:52:53.577Z,3.99
2022-08-17T05:54:25.464Z,4.03
2022-08-17T05:55:57.087Z,4.03
2022-08-17T05:57:28.901Z,3.90
2022-08-17T05:59:01.048Z,4.04
2022-08-17T06:00:33.034Z,4.62
2022-08-17T06:02:05.639Z,5.36
2022-08-17T06:03:37.186Z,4.26
2022-08-17T06:05:09.142Z,4.08
2022-08-17T06:06:40.806Z,3.97
2022-08-17T06:08:12.670Z,4.49
2022-08-17T06:09:44.462Z,4.23
2022-08-17T06:11:16.312Z,4.29
2022-08-17T06:12:51.868Z,4.31
2022-08-17T06:14:23.935Z,4.09
2022-08-17T06:15:55.481Z,4.38
2022-08-17T06:17:32.433Z,4.13
2022-08-17T06:19:04.227Z,4.04
2022-08-17T06:20:35.888Z,4.09
2022-08-17T06:22:07.551Z,4.07
2022-08-17T06:23:39.371Z,4.01
2022-08-17T06:25:11.015Z,3.99
2022-08-17T06:26:43.505Z,4.07
2022-08-17T06:28:15.386Z,4.15
2022-08-17T06:29:47.279Z,3.89
2022-08-17T06:31:19.042Z,4.08
2022-08-17T06:32:55.971Z,4.16
2022-08-17T06:34:32.546Z,4.26
2022-08-17T06:36:09.646Z,4.27
2022-08-17T06:37:41.338Z,3.90
2022-08-17T06:39:13.341Z,4.01
2022-08-17T06:40:44.947Z,3.99
2022-08-17T06:43:02.465Z,4.02
2022-08-17T06:44:50.302Z,4.35
2022-08-17T06:46:22.844Z,4.05
2022-08-17T06:47:54.540Z,4.01
2022-08-17T06:49:26.210Z,4.07
2022-08-17T06:50:57.810Z,4.12
2022-08-17T06:52:46.107Z,4.08
2022-08-17T06:54:19.022Z,3.90
2022-08-17T06:55:50.872Z,4.17
2022-08-17T06:57:22.703Z,4.04
2022-08-17T06:58:54.242Z,3.91
2022-08-17T07:00:30.994Z,4.05
2022-08-17T07:02:02.994Z,3.72
2022-08-17T07:03:34.674Z,4.40
2022-08-17T07:05:06.245Z,3.98
2022-08-17T07:06:38.054Z,4.16
2022-08-17T07:08:10.462Z,4.20
2022-08-17T07:09:47.249Z,4.08
2022-08-17T07:11:18.981Z,4.05
2022-08-17T07:12:55.786Z,3.98
2022-08-17T07:14:27.899Z,3.65
2022-08-17T07:15:59.945Z,3.56
2022-08-17T07:17:46.676Z,3.44
2022-08-17T07:19:19.715Z,3.70
2022-08-17T07:20:51.446Z,3.53
2022-08-17T07:22:23.450Z,3.43
2022-08-17T07:23:55.084Z,3.25
2022-08-17T07:25:31.749Z,3.53
2022-08-17T07:27:03.445Z,3.23
2022-08-17T07:28:35.455Z,3.63
2022-08-17T07:30:10.792Z,3.80
2022-08-17T07:31:42.963Z,3.62
2022-08-17T07:33:14.757Z,3.59
2022-08-17T07:34:46.454Z,3.88
2022-08-17T07:36:18.227Z,3.74
2022-08-17T07:37:50.260Z,3.53
2022-08-17T07:39:22.168Z,3.59
2022-08-17T07:40:53.989Z,3.69
2022-08-17T07:42:25.806Z,3.69
2022-08-17T07:43:57.780Z,3.67
2022-08-17T07:45:29.467Z,3.53
2022-08-17T07:47:01.000Z,3.61
2022-08-17T07:48:32.651Z,3.29
2022-08-17T07:50:04.637Z,3.43
2022-08-17T07:51:36.808Z,3.42
2022-08-17T07:53:13.697Z,3.45
2022-08-17T07:54:45.891Z,3.17
2022-08-17T07:56:17.550Z,3.39
2022-08-17T07:57:49.708Z,3.69
2022-08-17T07:59:23.622Z,3.22
2022-08-17T08:00:55.859Z,2.91
2022-08-17T08:02:31.756Z,3.36
2022-08-17T08:04:05.764Z,4.11
2022-08-17T08:05:49.695Z,4.07
2022-08-17T08:07:22.690Z,4.26
2022-08-17T08:08:54.496Z,4.20
2022-08-17T08:10:26.601Z,3.79
2022-08-17T08:11:58.341Z,3.78
2022-08-17T08:13:31.250Z,3.67
2022-08-17T08:15:02.962Z,3.30
2022-08-17T08:16:34.969Z,3.34
2022-08-17T08:18:06.528Z,3.15
2022-08-17T08:19:38.328Z,3.47
2022-08-17T08:21:10.084Z,3.11
2022-08-17T08:22:41.973Z,2.90
2022-08-17T08:24:13.626Z,2.95
2022-08-17T08:25:45.474Z,3.00
2022-08-17T08:27:20.533Z,2.93
2022-08-17T08:28:52.371Z,2.94
2022-08-17T08:30:24.275Z,3.09
2022-08-17T08:31:55.992Z,3.45
2022-08-17T08:33:27.933Z,2.69
2022-08-17T08:35:02.818Z,2.91
2022-08-17T08:37:14.188Z,3.03
2022-08-17T08:38:49.600Z,2.73
2022-08-17T08:40:21.283Z,3.05
2022-08-17T08:41:53.108Z,3.11
2022-08-17T08:43:24.930Z,3.05
2022-08-17T08:45:00.535Z,2.97
2022-08-17T08:46:36.781Z,2.94
2022-08-17T08:48:23.145Z,3.18
2022-08-17T08:50:37.874Z,2.84
2022-08-17T08:52:10.173Z,3.06
2022-08-17T08:53:41.916Z,3.14
2022-08-17T08:55:18.544Z,2.85
2022-08-17T08:57:19.783Z,2.78
2022-08-17T08:58:56.207Z,3.06
2022-08-17T09:00:27.872Z,2.91
2022-08-17T09:01:59.634Z,3.14
2022-08-17T09:03:49.722Z,3.02
2022-08-17T09:05:23.903Z,3.21
2022-08-17T09:07:00.469Z,3.05
2022-08-17T09:08:37.105Z,3.08
2022-08-17T09:10:08.675Z,3.28
2022-08-17T09:12:02.282Z,3.20
2022-08-17T09:13:35.052Z,3.40
2022-08-17T09:15:10.911Z,3.13
2022-08-17T09:16:44.852Z,3.15
2022-08-17T09:19:00.203Z,2.98
2022-08-17T09:20:35.471Z,2.69
2022-08-17T09:22:07.315Z,2.81
2022-08-17T09:23:39.118Z,2.86
2022-08-17T09:25:11.270Z,2.81
2022-08-17T09:26:42.930Z,2.84
2022-08-17T09:28:18.121Z,3.27
2022-08-17T09:29:54.928Z,2.89
2022-08-17T09:31:29.940Z,3.03
2022-08-17T09:33:04.496Z,2.79
2022-08-17T09:34:36.154Z,2.88
2022-08-17T09:36:08.373Z,2.90
2022-08-17T09:37:40.150Z,2.78
2022-08-17T09:39:11.827Z,2.93
2022-08-17T09:40:43.682Z,2.84
2022-08-17T09:42:15.743Z,3.11
2022-08-17T09:43:47.501Z,3.00
2022-08-17T09:45:19.245Z,3.22
2022-08-17T09:46:56.124Z,3.12
2022-08-17T09:48:28.015Z,3.22
2022-08-17T09:50:04.784Z,3.32
2022-08-17T09:51:36.428Z,3.12
2022-08-17T09:53:08.197Z,3.09
2022-08-17T09:54:40.554Z,3.39
2022-08-17T09:56:17.582Z,3.35
2022-08-17T09:57:49.568Z,3.35
2022-08-17T09:59:21.678Z,3.41
2022-08-17T10:00:53.565Z,3.59
2022-08-17T10:02:29.413Z,3.59
2022-08-17T10:04:06.163Z,3.80
2022-08-17T10:05:38.208Z,3.47
2022-08-17T10:07:09.797Z,3.54
2022-08-17T10:08:41.491Z,3.55
2022-08-17T10:10:18.320Z,3.53
2022-08-17T10:11:51.995Z,3.90
2022-08-17T10:13:24.271Z,3.56
2022-08-17T10:14:56.316Z,3.99
2022-08-17T10:16:28.915Z,3.94
2022-08-17T10:18:05.798Z,3.93
2022-08-17T10:19:37.595Z,4.09
2022-08-17T10:21:09.590Z,3.65
2022-08-17T10:22:41.580Z,3.69
2022-08-17T10:24:13.510Z,3.62
2022-08-17T10:25:55.081Z,3.79
2022-08-17T10:27:27.381Z,3.86
2022-08-17T10:28:59.109Z,3.92
2022-08-17T10:30:30.623Z,3.90
2022-08-17T10:32:02.639Z,3.96
2022-08-17T10:33:34.386Z,4.12
2022-08-17T10:35:06.049Z,4.14
2022-08-17T10:36:38.334Z,4.23
2022-08-17T10:38:09.960Z,4.38
2022-08-17T10:39:52.624Z,4.16
2022-08-17T10:41:25.017Z,4.41
2022-08-17T10:42:57.056Z,4.76
2022-08-17T10:44:40.392Z,4.72
2022-08-17T10:46:30.845Z,4.40
2022-08-17T10:48:06.398Z,4.45
2022-08-17T10:49:38.720Z,4.67
2022-08-17T10:51:15.438Z,4.80
2022-08-17T10:52:47.186Z,4.98
2022-08-17T10:54:19.147Z,5.16
2022-08-17T10:55:50.856Z,5.29
2022-08-17T10:57:22.503Z,5.20
2022-08-17T10:58:54.161Z,5.59
2022-08-17T11:00:27.751Z,5.22
2022-08-17T11:01:59.854Z,5.29
2022-08-17T11:03:31.653Z,5.53
2022-08-17T11:05:03.817Z,5.92
2022-08-17T11:06:35.641Z,6.25
2022-08-17T11:08:07.530Z,6.40
2022-08-17T11:09:39.257Z,5.98
2022-08-17T11:11:10.764Z,6.55
2022-08-17T11:12:42.588Z,6.76
2022-08-17T11:14:14.424Z,6.49
2022-08-17T11:15:51.356Z,6.76
2022-08-17T11:17:23.178Z,6.86
2022-08-17T11:18:54.744Z,7.01
2022-08-17T11:20:26.532Z,6.83
2022-08-17T11:21:58.579Z,7.04
2022-08-17T11:23:30.428Z,7.29
2022-08-17T11:25:02.323Z,7.13
2022-08-17T11:26:39.098Z,7.15
2022-08-17T11:28:15.966Z,7.23
2022-08-17T11:29:50.660Z,7.77
2022-08-17T11:31:38.805Z,7.56
2022-08-17T11:33:16.479Z,7.56
2022-08-17T11:34:52.945Z,7.96
2022-08-17T11:36:47.550Z,7.66
2022-08-17T11:38:19.823Z,8.16
2022-08-17T11:39:57.010Z,7.72
2022-08-17T11:41:29.052Z,8.02
2022-08-17T11:43:00.852Z,7.93
2022-08-17T11:44:32.545Z,7.95
2022-08-17T11:46:04.392Z,8.26
2022-08-17T11:47:41.222Z,7.91
2022-08-17T11:49:13.732Z,8.16
2022-08-17T11:50:45.780Z,8.27
2022-08-17T11:52:17.720Z,8.31
2022-08-17T11:53:49.576Z,8.44
2022-08-17T11:55:34.990Z,8.62
2022-08-17T11:57:09.298Z,9.06
2022-08-17T11:58:41.036Z,9.29
2022-08-17T12:00:12.687Z,9.90
2022-08-17T12:01:44.772Z,9.47
2022-08-17T12:03:16.585Z,9.48
2022-08-17T12:04:53.415Z,9.95
2022-08-17T12:06:30.478Z,9.70
2022-08-17T12:08:02.907Z,10.24
2022-08-17T12:09:34.515Z,9.79
2022-08-17T12:11:11.188Z,10.33
2022-08-17T12:12:43.024Z,10.20
2022-08-17T12:14:19.211Z,10.58
2022-08-17T12:15:53.236Z,10.98
2022-08-17T12:17:39.669Z,11.18
2022-08-17T12:19:23.822Z,11.29
2022-08-17T12:20:56.863Z,11.22
2022-08-17T12:22:28.747Z,11.49
2022-08-17T12:24:00.900Z,12.26
2022-08-17T12:25:32.587Z,12.32
2022-08-17T12:27:04.267Z,13.78
2022-08-17T12:28:36.185Z,13.31
2022-08-17T12:30:08.423Z,13.83
2022-08-17T12:31:40.320Z,13.47
2022-08-17T12:33:12.289Z,13.21
2022-08-17T12:34:43.805Z,13.67
2022-08-17T12:36:15.425Z,13.77
2022-08-17T12:37:47.283Z,14.68
2022-08-17T12:39:21.326Z,14.20
2022-08-17T12:40:54.337Z,15.46
2022-08-17T12:42:30.059Z,14.65
2022-08-17T12:44:02.540Z,14.84
2022-08-17T12:45:35.543Z,14.97
2022-08-17T12:47:07.619Z,14.86
2022-08-17T12:48:39.261Z,15.85
2022-08-17T12:50:29.407Z,15.51
2022-08-17T12:52:01.716Z,15.80
2022-08-17T12:53:34.190Z,16.33
2022-08-17T12:55:06.139Z,16.96
2022-08-17T12:56:37.766Z,15.79
2022-08-17T12:58:14.003Z,16.03
2022-08-17T12:59:46.391Z,16.35
2022-08-17T13:01:18.549Z,16.82
2022-08-17T13:02:50.716Z,17.08
2022-08-17T13:04:29.569Z,17.14
2022-08-17T13:06:02.099Z,16.18
2022-08-17T13:07:33.910Z,16.23
2022-08-17T13:09:05.860Z,17.39
2022-08-17T13:10:37.934Z,17.13
2022-08-17T13:12:09.835Z,15.96
2022-08-17T13:13:41.787Z,16.75
2022-08-17T13:15:13.992Z,16.39
2022-08-17T13:16:45.682Z,17.02
2022-08-17T13:18:17.449Z,16.39
2022-08-17T13:19:49.403Z,15.84
2022-08-17T13:21:21.400Z,16.54
2022-08-17T13:22:53.071Z,16.48
2022-08-17T13:24:26.729Z,16.64
2022-08-17T13:25:58.543Z,16.27
2022-08-17T13:27:30.190Z,16.77
2022-08-17T13:29:01.890Z,15.27
2022-08-17T13:30:33.812Z,16.13
2022-08-17T13:32:13.026Z,15.86
2022-08-17T13:33:45.678Z,15.79
2022-08-17T13:35:28.265Z,16.56
2022-08-17T13:37:02.974Z,15.92
2022-08-17T13:38:43.865Z,15.64
2022-08-17T13:40:20.595Z,16.13
2022-08-17T13:41:52.415Z,15.91
2022-08-17T13:43:24.090Z,15.57
2022-08-17T13:44:55.920Z,15.88
2022-08-17T13:46:27.679Z,15.75
2022-08-17T13:47:59.409Z,15.62
2022-08-17T13:49:48.260Z,15.48
2022-08-17T13:51:21.084Z,15.86
2022-08-17T13:52:52.821Z,15.77
2022-08-17T13:54:24.558Z,15.25
2022-08-17T13:55:56.271Z,15.87
2022-08-17T13:57:28.140Z,15.60
2022-08-17T13:59:00.321Z,14.88
2022-08-17T14:00:32.005Z,14.94
2022-08-17T14:02:04.017Z,15.19
2022-08-17T14:03:41.144Z,16.12
2022-08-17T14:05:16.191Z,17.10
2022-08-17T14:06:51.755Z,17.34
2022-08-17T14:08:25.155Z,15.83
2022-08-17T14:09:56.803Z,16.95
2022-08-17T14:11:57.948Z,18.57
2022-08-17T14:13:29.791Z,18.18
2022-08-17T14:15:01.570Z,17.17
2022-08-17T14:16:33.905Z,17.29
2022-08-17T14:18:05.625Z,18.26
2022-08-17T14:19:37.503Z,16.54
2022-08-17T14:21:09.128Z,16.64
2022-08-17T14:22:41.026Z,16.94
2022-08-17T14:24:12.752Z,16.56
2022-08-17T14:25:44.444Z,16.58
2022-08-17T14:27:16.170Z,17.08
2022-08-17T14:28:56.588Z,19.41
2022-08-17T14:30:30.132Z,18.22
2022-08-17T14:32:01.987Z,19.48
2022-08-17T14:33:34.043Z,19.83
2022-08-17T14:35:05.905Z,17.55
2022-08-17T14:36:37.638Z,16.19
2022-08-17T14:38:09.783Z,15.37
2022-08-17T14:39:41.791Z,14.86
2022-08-17T14:41:15.585Z,14.29
2022-08-17T14:42:50.476Z,15.64
2022-08-17T14:44:22.217Z,15.70
2022-08-17T14:45:54.179Z,15.94
2022-08-17T14:47:26.047Z,16.38
2022-08-17T14:48:58.026Z,17.96
2022-08-17T14:50:30.041Z,19.34
2022-08-17T14:52:03.648Z,16.66
2022-08-17T14:53:35.499Z,15.39
2022-08-17T14:55:07.274Z,15.38
2022-08-17T14:56:39.038Z,15.96
2022-08-17T14:58:11.408Z,16.32
2022-08-17T14:59:44.370Z,16.75
2022-08-17T15:01:16.290Z,16.81
2022-08-17T15:02:47.991Z,16.54
2022-08-17T15:04:19.951Z,17.61
2022-08-17T15:05:51.573Z,17.95
2022-08-17T15:07:26.171Z,20.31
2022-08-17T15:09:02.780Z,22.35
2022-08-17T15:10:34.600Z,22.08
2022-08-17T15:12:06.528Z,20.89
2022-08-17T15:13:52.555Z,21.23
2022-08-17T15:15:24.943Z,21.92
2022-08-17T15:16:56.723Z,22.13
2022-08-17T15:18:28.555Z,26.51
2022-08-17T15:20:00.268Z,26.57
2022-08-17T15:21:33.291Z,25.58
2022-08-17T15:23:05.098Z,24.69
2022-08-17T15:24:37.982Z,25.57
2022-08-17T15:26:09.645Z,25.33
2022-08-17T15:27:41.262Z,27.86
2022-08-17T15:29:18.005Z,27.44
2022-08-17T15:30:50.104Z,26.81
2022-08-17T15:32:21.866Z,26.67
2022-08-17T15:33:53.576Z,29.07
2022-08-17T15:35:28.119Z,27.75
2022-08-17T15:37:00.322Z,27.62
2022-08-17T15:38:31.965Z,28.31
2022-08-17T15:40:03.865Z,28.33
2022-08-17T15:41:35.867Z,27.95
2022-08-17T15:43:07.673Z,27.13
2022-08-17T15:44:39.358Z,25.17
2022-08-17T15:46:11.243Z,26.66
2022-08-17T15:47:44.408Z,26.71
2022-08-17T15:49:16.219Z,26.32
2022-08-17T15:50:48.046Z,25.20
2022-08-17T15:52:19.822Z,26.75
2022-08-17T15:53:51.491Z,28.87
2022-08-17T15:55:28.320Z,27.68
2022-08-17T15:57:00.016Z,28.79
2022-08-17T15:58:33.553Z,29.53
2022-08-17T16:00:05.410Z,27.54
2022-08-17T16:03:13.359Z,28.03
2022-08-17T16:05:07.218Z,28.77
2022-08-17T16:06:42.007Z,29.58
2022-08-17T16:08:18.496Z,26.59
2022-08-17T16:09:52.449Z,26.14
2022-08-17T16:11:24.291Z,25.89
2022-08-17T16:12:56.335Z,27.10
2022-08-17T16:14:32.423Z,29.05
2022-08-17T16:16:12.056Z,29.36
2022-08-17T16:17:43.844Z,29.69
2022-08-17T16:19:15.725Z,31.95
2022-08-17T16:20:47.556Z,32.66
2022-08-17T16:22:19.249Z,32.52
2022-08-17T16:23:52.149Z,30.59
2022-08-17T16:25:40.304Z,29.35
2022-08-17T16:27:26.326Z,29.26
2022-08-17T16:28:58.000Z,27.50
2022-08-17T16:30:29.856Z,26.91
2022-08-17T16:32:03.130Z,28.20
2022-08-17T16:33:34.814Z,27.52
2022-08-17T16:35:11.465Z,27.32
2022-08-17T16:36:55.664Z,28.96
2022-08-17T16:38:33.128Z,29.85
2022-08-17T16:40:04.849Z,32.23
2022-08-17T16:41:36.998Z,33.85
2022-08-17T16:43:08.704Z,35.50
2022-08-17T16:44:40.677Z,37.44
2022-08-17T16:46:17.353Z,39.79
2022-08-17T16:47:49.193Z,39.93
2022-08-17T16:49:36.355Z,40.14
2022-08-17T16:51:09.530Z,41.94
2022-08-17T16:52:46.178Z,44.06
2022-08-17T16:54:17.876Z,43.62
2022-08-17T16:55:49.727Z,44.39
2022-08-17T16:57:21.494Z,44.58
2022-08-17T16:58:53.250Z,44.95
2022-08-17T17:00:24.958Z,46.09
2022-08-17T17:01:57.087Z,43.89
2022-08-17T17:03:33.978Z,44.38
2022-08-17T17:05:05.747Z,43.49
2022-08-17T17:06:37.434Z,43.22
2022-08-17T17:08:09.519Z,40.09
2022-08-17T17:09:41.106Z,38.52
2022-08-17T17:11:18.078Z,36.91
2022-08-17T17:13:01.965Z,35.83
2022-08-17T17:14:35.847Z,33.95
2022-08-17T17:16:12.755Z,32.69
2022-08-17T17:17:44.960Z,31.49
2022-08-17T17:19:16.663Z,31.58
2022-08-17T17:20:58.423Z,30.51
2022-08-17T17:22:30.117Z,29.74
2022-08-17T17:24:07.012Z,29.92
2022-08-17T17:25:39.119Z,29.55
2022-08-17T17:27:10.807Z,29.18
2022-08-17T17:28:42.908Z,29.32
2022-08-17T17:30:14.661Z,28.19
2022-08-17T17:31:46.539Z,27.12
2022-08-17T17:33:18.627Z,26.88
2022-08-17T17:34:51.252Z,27.83
2022-08-17T17:36:23.546Z,28.76
2022-08-17T17:37:55.536Z,30.78
2022-08-17T17:39:33.216Z,31.15
2022-08-17T17:41:05.759Z,31.56
2022-08-17T17:42:37.662Z,30.59
2022-08-17T17:44:09.438Z,29.99
2022-08-17T17:45:46.475Z,28.52
2022-08-17T17:47:18.781Z,29.13
2022-08-17T17:48:56.066Z,31.45
2022-08-17T17:50:28.321Z,31.59
2022-08-17T17:52:08.501Z,30.78
2022-08-17T17:53:43.550Z,29.91
2022-08-17T17:55:16.244Z,30.27
2022-08-17T17:56:48.135Z,30.33
2022-08-17T17:58:20.363Z,29.19
2022-08-17T17:59:52.166Z,28.26
2022-08-17T18:01:24.197Z,27.72
2022-08-17T18:02:56.331Z,27.76
2022-08-17T18:04:48.623Z,27.42
2022-08-17T18:06:21.270Z,27.32
2022-08-17T18:07:58.443Z,27.42
2022-08-17T18:09:32.765Z,26.72
2022-08-17T18:11:06.358Z,26.00
2022-08-17T18:12:38.234Z,26.58
2022-08-17T18:14:10.190Z,27.21
2022-08-17T18:15:41.943Z,26.12
2022-08-17T18:17:19.668Z,26.89
2022-08-17T18:19:02.065Z,27.17
2022-08-17T18:20:43.337Z,28.62
2022-08-17T18:22:27.681Z,27.13
2022-08-17T18:24:00.225Z,26.33
2022-08-17T18:25:33.541Z,26.92
2022-08-17T18:27:08.370Z,27.21
2022-08-17T18:28:40.632Z,26.96
2022-08-17T18:30:12.648Z,26.56
2022-08-17T18:31:49.247Z,26.57
2022-08-17T18:33:26.276Z,25.99
2022-08-17T18:34:57.960Z,25.29
2022-08-17T18:36:29.902Z,24.63
2022-08-17T18:38:02.134Z,25.50
2022-08-17T18:39:39.029Z,26.12
2022-08-17T18:41:26.215Z,26.39
2022-08-17T18:43:23.854Z,27.30
2022-08-17T18:44:55.946Z,26.37
2022-08-17T18:46:33.429Z,26.21
2022-08-17T18:48:05.526Z,27.30
2022-08-17T18:49:37.529Z,26.53
2022-08-17T18:51:10.857Z,27.06
2022-08-17T18:52:42.864Z,27.41
2022-08-17T18:54:14.794Z,28.21
2022-08-17T18:55:52.239Z,27.99
2022-08-17T18:57:27.071Z,28.99
2022-08-17T18:58:59.318Z,28.97
2022-08-17T19:00:32.241Z,29.45
2022-08-17T19:02:11.791Z,28.58
2022-08-17T19:03:48.390Z,29.22
2022-08-17T19:05:25.453Z,28.86
2022-08-17T19:06:57.389Z,28.16
2022-08-17T19:08:35.808Z,28.77
2022-08-17T19:10:23.112Z,29.14
2022-08-17T19:11:55.311Z,29.20
2022-08-17T19:13:27.155Z,29.66
2022-08-17T19:14:58.923Z,29.68
2022-08-17T19:16:31.122Z,29.68
2022-08-17T19:18:03.209Z,30.06
2022-08-17T19:19:40.193Z,30.04
2022-08-17T19:21:26.300Z,30.15
2022-08-17T19:22:58.298Z,29.75
2022-08-17T19:24:52.035Z,30.34
2022-08-17T19:26:54.309Z,31.91
2022-08-17T19:28:28.474Z,31.51
2022-08-17T19:30:05.353Z,31.41
2022-08-17T19:31:39.729Z,31.47
2022-08-17T19:33:11.739Z,31.98
2022-08-17T19:34:44.876Z,30.70
2022-08-17T19:36:16.881Z,30.80
2022-08-17T19:37:48.766Z,30.88
2022-08-17T19:39:20.742Z,30.61
2022-08-17T19:40:53.969Z,31.97
2022-08-17T19:42:26.531Z,31.90
2022-08-17T19:43:58.776Z,31.44
2022-08-17T19:45:30.540Z,31.43
2022-08-17T19:47:02.892Z,33.04
2022-08-17T19:48:38.091Z,32.24
2022-08-17T19:50:20.780Z,33.46
2022-08-17T19:51:56.003Z,33.51
2022-08-17T19:55:45.964Z,35.14
2022-08-17T19:57:19.435Z,35.06
2022-08-17T19:58:51.524Z,34.79
2022-08-17T20:00:28.357Z,35.12
2022-08-17T20:02:01.065Z,35.42
2022-08-17T20:03:38.271Z,35.88
2022-08-17T20:05:09.812Z,36.37
2022-08-17T20:06:51.331Z,36.39
2022-08-17T20:08:23.032Z,36.83
2022-08-17T20:09:59.879Z,35.87
2022-08-17T20:11:31.673Z,35.74
2022-08-17T20:13:03.430Z,36.10
2022-08-17T20:14:34.979Z,34.25
2022-08-17T20:16:06.817Z,35.20
2022-08-17T20:17:42.557Z,33.13
2022-08-17T20:19:19.445Z,34.38
2022-08-17T20:20:51.137Z,35.40
2022-08-17T20:22:26.757Z,36.01
2022-08-17T20:23:58.540Z,37.39
2022-08-17T20:25:35.198Z,36.95
2022-08-17T20:27:07.064Z,38.53
2022-08-17T20:28:38.733Z,39.23
2022-08-17T20:30:10.442Z,38.04
2022-08-17T20:31:46.999Z,35.47
2022-08-17T20:33:18.618Z,34.88
2022-08-17T20:34:50.404Z,34.60
2022-08-17T20:36:27.208Z,34.36
2022-08-17T20:37:58.957Z,36.50
2022-08-17T20:39:30.708Z,36.96
2022-08-17T20:41:05.643Z,36.66